Time;durP1;ratioP1;P1;durP2;ratioP2;P2;SDS_P1;SDS_P2;PMS_P1;PMS_P2;Temp;Humidity;BMP_temperature;BMP_pressure;BME280_temperature;BME280_humidity;BME280_pressure;Samples;Min_cycle;Max_cycle;Signal;HPM_P1;HPM_P2
2022/12/30 00:00:07;;;;;;;2.67;0.65;;;;;;;9.21;81.79;99359.09;348249;28;1712;-70
2022/12/30 00:00:20;;;;;;;1.90;0.70;;;;;;;9.20;81.54;99360.00;347820;28;1752;-70
2022/12/30 00:00:32;;;;;;;2.53;0.80;;;;;;;9.18;81.77;99362.66;347659;28;1813;-69
2022/12/30 00:00:44;;;;;;;2.42;0.90;;;;;;;9.21;81.55;99361.69;347126;28;1653;-69
2022/12/30 00:00:57;;;;;;;2.67;0.93;;;;;;;9.20;81.49;99360.84;347831;28;1838;-69
2022/12/30 00:01:12;;;;;;;2.20;0.90;;;;;;;9.24;81.50;99355.59;348372;28;1743;-69
2022/12/30 00:01:24;;;;;;;3.47;1.00;;;;;;;9.23;81.55;99353.88;347970;28;1694;-70
2022/12/30 00:01:36;;;;;;;4.22;0.95;;;;;;;9.24;81.62;99350.41;346183;28;1730;-69
2022/12/30 00:01:48;;;;;;;4.10;0.95;;;;;;;9.17;81.65;99354.91;346368;28;1935;-69
2022/12/30 00:02:00;;;;;;;3.83;1.00;;;;;;;9.17;81.74;99355.75;345765;28;1863;-69
2022/12/30 00:02:13;;;;;;;3.97;0.95;;;;;;;9.20;81.73;99360.00;343973;28;1804;-70
2022/12/30 00:02:25;;;;;;;3.70;0.85;;;;;;;9.25;81.60;99352.06;344353;28;2070;-67
2022/12/30 00:02:37;;;;;;;3.65;0.80;;;;;;;9.28;81.37;99362.38;344573;28;1730;-68
2022/12/30 00:02:49;;;;;;;3.05;0.90;;;;;;;9.25;81.66;99354.66;343636;28;1016;-68
2022/12/30 00:03:02;;;;;;;2.92;1.00;;;;;;;9.24;81.46;99360.78;343992;28;1128;-68
2022/12/30 00:03:15;;;;;;;2.75;1.02;;;;;;;9.26;81.42;99358.97;343977;28;1066;-69
2022/12/30 00:03:27;;;;;;;3.88;1.00;;;;;;;9.15;81.40;99352.34;344925;28;1036;-69
2022/12/30 00:03:39;;;;;;;4.63;1.05;;;;;;;9.18;81.83;99364.41;345452;28;1465;-68
2022/12/30 00:03:51;;;;;;;4.88;1.42;;;;;;;9.25;81.56;99357.25;346220;28;2276;-66
2022/12/30 00:04:03;;;;;;;5.30;1.60;;;;;;;9.29;81.21;99353.66;346608;28;1679;-66
2022/12/30 00:04:15;;;;;;;3.58;1.45;;;;;;;9.33;81.08;99360.47;348400;28;1011;-66
2022/12/30 00:04:27;;;;;;;4.65;1.10;;;;;;;9.29;81.12;99359.69;347737;28;1752;-66
2022/12/30 00:04:39;;;;;;;7.28;1.27;;;;;;;9.29;81.22;99351.06;349198;28;1196;-68
2022/12/30 00:04:51;;;;;;;7.38;1.30;;;;;;;9.24;81.20;99363.38;350192;28;1157;-68
2022/12/30 00:05:04;;;;;;;5.60;1.17;;;;;;;9.24;81.32;99363.38;350274;28;1019;-68
2022/12/30 00:05:16;;;;;;;2.65;0.88;;;;;;;9.19;81.30;99361.75;350235;28;1357;-68
2022/12/30 00:05:28;;;;;;;2.65;1.00;;;;;;;9.24;81.48;99365.97;350307;28;1887;-68
2022/12/30 00:05:40;;;;;;;2.55;1.13;;;;;;;9.15;81.32;99367.91;348876;28;1767;-68
2022/12/30 00:05:52;;;;;;;2.78;1.15;;;;;;;9.11;81.76;99358.53;349477;28;2194;-66
2022/12/30 00:06:07;;;;;;;2.65;1.00;;;;;;;9.12;81.54;99362.84;350679;28;1320;-66
2022/12/30 00:06:22;;;;;;;2.30;0.90;;;;;;;9.09;81.99;99360.31;350169;28;1307;-66
2022/12/30 00:06:34;;;;;;;2.00;1.00;;;;;;;9.07;81.87;99359.53;350061;28;1822;-67
2022/12/30 00:06:47;;;;;;;1.63;1.10;;;;;;;9.10;81.84;99356.84;350236;28;1145;-69
2022/12/30 00:07:02;;;;;;;1.90;1.17;;;;;;;9.09;82.06;99362.91;349383;28;1321;-69
2022/12/30 00:07:14;;;;;;;1.90;1.10;;;;;;;9.12;82.01;99368.03;348917;28;1303;-68
2022/12/30 00:07:26;;;;;;;2.22;1.00;;;;;;;9.15;81.94;99367.91;348818;28;1191;-68
2022/12/30 00:07:38;;;;;;;3.10;1.10;;;;;;;9.12;82.31;99367.19;348773;28;2200;-69
2022/12/30 00:07:52;;;;;;;3.42;1.08;;;;;;;9.12;81.88;99368.03;349187;28;1379;-68
2022/12/30 00:08:45;;;;;;;3.38;0.90;;;;;;;9.17;82.04;99360.94;348929;28;1180;-70
2022/12/30 00:08:48;;;;;;;2.78;0.98;;;;;;;9.16;81.69;99367.03;347746;28;1006;-69
2022/12/30 00:09:00;;;;;;;5.32;1.10;;;;;;;9.11;81.54;99366.31;347827;28;2206;-70
2022/12/30 00:09:15;;;;;;;5.15;1.20;;;;;;;9.15;81.53;99365.31;348746;28;1738;-70
2022/12/30 00:09:27;;;;;;;4.50;1.00;;;;;;;9.13;81.52;99369.72;349371;28;1059;-70
2022/12/30 00:09:39;;;;;;;3.47;1.10;;;;;;;9.07;81.69;99367.31;349503;28;1007;-70
2022/12/30 00:09:53;;;;;;;2.58;1.02;;;;;;;9.11;81.59;99365.47;348995;28;1230;-70
2022/12/30 00:10:08;;;;;;;3.90;1.10;;;;;;;9.09;81.50;99368.09;348428;28;1016;-70
2022/12/30 00:10:20;;;;;;;5.88;1.25;;;;;;;9.12;81.36;99368.03;348302;28;1292;-70
2022/12/30 00:10:32;;;;;;;5.53;1.10;;;;;;;9.08;81.44;99365.59;348970;28;1291;-70
2022/12/30 00:10:45;;;;;;;3.20;1.00;;;;;;;9.09;81.55;99368.09;348745;28;1488;-70
2022/12/30 00:10:57;;;;;;;2.30;0.83;;;;;;;9.16;81.31;99372.22;350445;28;1782;-67
2022/12/30 00:11:09;;;;;;;1.77;0.82;;;;;;;9.19;81.37;99366.09;348138;28;1725;-67
2022/12/30 00:11:30;;;;;;;2.50;1.00;;;;;;;9.17;81.22;99366.13;348606;28;1910;-68
2022/12/30 00:11:42;;;;;;;2.47;0.95;;;;;;;9.14;81.14;99358.44;346787;28;1822;-69
2022/12/30 00:33:05;;;;;;;2.00;0.90;;;;;;;9.09;81.36;99365.50;347467;28;1192;-68
2022/12/30 00:33:20;;;;;;;3.58;1.23;;;;;;;8.90;82.32;99388.56;348213;28;1229;-69
2022/12/30 00:33:46;;;;;;;3.72;1.25;;;;;;;8.94;82.12;99386.75;346556;28;1242;-69
2022/12/30 00:34:04;;;;;;;4.70;1.40;;;;;;;8.95;82.11;99388.44;346872;28;1840;-70
2022/12/30 00:34:22;;;;;;;4.70;1.27;;;;;;;8.99;82.08;99392.63;347743;28;1333;-67
2022/12/30 00:34:37;;;;;;;3.85;1.38;;;;;;;8.94;82.07;99400.53;347625;28;1023;-68
2022/12/30 00:34:49;;;;;;;6.05;1.83;;;;;;;8.95;82.07;99391.88;347180;28;1638;-68
2022/12/30 00:35:02;;;;;;;5.15;1.70;;;;;;;8.95;82.01;99396.19;349377;28;1082;-68
2022/12/30 00:35:16;;;;;;;4.70;1.42;;;;;;;8.93;81.96;99392.81;349253;28;1072;-69
2022/12/30 00:35:28;;;;;;;5.43;1.50;;;;;;;8.92;82.13;99397.16;347466;28;1265;-68
2022/12/30 00:35:41;;;;;;;4.47;1.60;;;;;;;8.95;82.09;99397.06;349023;28;1042;-68
2022/12/30 00:35:54;;;;;;;3.65;1.50;;;;;;;8.96;82.06;99392.72;348078;28;1639;-68
2022/12/30 00:36:06;;;;;;;3.72;1.50;;;;;;;8.94;82.07;99390.19;347376;28;1942;-69
2022/12/30 00:36:23;;;;;;;4.25;1.40;;;;;;;8.92;82.09;99396.31;346919;28;1328;-69
2022/12/30 00:36:36;;;;;;;5.05;1.48;;;;;;;8.93;82.07;99393.69;348010;28;1273;-70
2022/12/30 00:36:49;;;;;;;4.28;1.60;;;;;;;8.97;82.47;99395.28;347793;28;1180;-70
2022/12/30 00:37:02;;;;;;;3.55;1.45;;;;;;;8.95;82.12;99401.38;346582;28;2013;-69
2022/12/30 00:37:15;;;;;;;4.43;1.30;;;;;;;8.91;82.17;99399.78;345052;28;1014;-70
2022/12/30 00:37:27;;;;;;;5.10;1.30;;;;;;;8.88;82.24;99399.88;346065;28;1923;-69
2022/12/30 00:37:39;;;;;;;4.85;1.40;;;;;;;8.94;82.19;99397.13;346214;28;1548;-70
2022/12/30 00:37:51;;;;;;;4.93;1.65;;;;;;;8.95;82.16;99396.19;347762;28;1075;-69
2022/12/30 00:38:04;;;;;;;5.25;1.63;;;;;;;8.95;82.29;99394.47;348629;28;1212;-69
2022/12/30 00:38:16;;;;;;;4.03;1.35;;;;;;;9.00;81.91;99400.34;349458;28;2174;-70
2022/12/30 00:38:28;;;;;;;3.47;1.00;;;;;;;9.02;81.79;99396.88;350652;28;1240;-70
2022/12/30 00:38:40;;;;;;;4.70;1.23;;;;;;;8.99;81.69;99403.00;350526;28;1259;-69
2022/12/30 00:38:53;;;;;;;6.65;1.58;;;;;;;9.01;81.88;99401.19;350901;28;987;-70
2022/12/30 00:39:05;;;;;;;6.43;1.90;;;;;;;9.02;81.84;99396.88;349283;28;1042;-69
2022/12/30 00:39:17;;;;;;;3.08;2.00;;;;;;;9.02;81.83;99402.91;346824;28;1592;-69
2022/12/30 00:39:29;;;;;;;2.80;1.95;;;;;;;8.99;81.84;99397.81;346783;28;1939;-69
2022/12/30 00:39:42;;;;;;;3.42;1.90;;;;;;;8.98;81.81;99406.50;345160;28;1719;-68
2022/12/30 00:39:53;;;;;;;3.95;1.63;;;;;;;8.99;82.06;99400.41;343839;28;1615;-68
2022/12/30 00:40:06;;;;;;;4.53;1.60;;;;;;;9.01;81.86;99403.78;344653;28;1590;-69
2022/12/30 00:40:18;;;;;;;4.63;1.90;;;;;;;9.00;81.91;99396.94;344494;28;1635;-70
2022/12/30 00:40:30;;;;;;;4.53;1.90;;;;;;;8.97;82.08;99405.66;344748;28;1327;-69
2022/12/30 00:43:07;;;;;;;4.78;1.75;;;;;;;8.94;82.17;99399.72;344964;28;1055;-70
2022/12/30 00:43:20;;;;;;;5.63;1.85;;;;;;;9.08;81.48;99402.72;345174;28;1569;-68
2022/12/30 00:43:32;;;;;;;6.97;2.20;;;;;;;9.07;81.75;99406.19;346715;28;1883;-68
2022/12/30 00:43:44;;;;;;;5.47;2.47;;;;;;;9.09;81.46;99399.22;345910;28;1608;-68
2022/12/30 00:43:56;;;;;;;3.85;2.30;;;;;;;9.02;81.63;99402.91;345994;28;1508;-69
2022/12/30 00:44:08;;;;;;;3.42;2.10;;;;;;;9.03;81.75;99404.59;345945;28;2225;-68
2022/12/30 00:44:20;;;;;;;3.30;1.77;;;;;;;9.05;81.66;99401.97;346590;28;1169;-69
2022/12/30 00:44:32;;;;;;;3.22;1.60;;;;;;;9.02;81.80;99405.50;345296;28;2240;-68
2022/12/30 00:44:44;;;;;;;3.95;1.77;;;;;;;9.02;81.95;99402.91;345903;28;1968;-69
2022/12/30 00:44:56;;;;;;;4.18;1.67;;;;;;;9.03;81.77;99409.78;346229;28;1484;-69
2022/12/30 00:45:08;;;;;;;3.58;1.45;;;;;;;9.01;81.88;99406.38;345587;28;2377;-69
2022/12/30 00:45:23;;;;;;;4.00;1.40;;;;;;;8.97;81.91;99404.78;345813;28;1669;-68
2022/12/30 00:45:41;;;;;;;4.22;1.58;;;;;;;8.94;81.65;99399.72;346332;28;1241;-69
2022/12/30 00:45:53;;;;;;;2.42;1.25;;;;;;;8.92;82.21;99407.53;345733;28;1842;-69
2022/12/30 00:46:06;;;;;;;3.60;1.33;;;;;;;8.94;82.11;99407.47;345241;28;1086;-69
2022/12/30 00:46:19;;;;;;;4.20;1.27;;;;;;;8.94;82.33;99402.28;345321;28;1305;-68
2022/12/30 00:46:33;;;;;;;5.18;1.60;;;;;;;8.96;81.92;99400.50;346973;28;1277;-68
2022/12/30 00:46:45;;;;;;;5.80;1.83;;;;;;;8.98;82.18;99414.28;347476;28;1139;-68
2022/12/30 00:46:58;;;;;;;5.85;1.80;;;;;;;8.98;82.15;99409.09;347348;28;1188;-68
2022/12/30 00:47:12;;;;;;;5.07;1.63;;;;;;;8.94;81.89;99412.66;346475;28;2246;-68
2022/12/30 00:47:24;;;;;;;3.17;1.25;;;;;;;8.92;81.99;99407.53;347334;28;1335;-69
2022/12/30 00:47:36;;;;;;;4.05;1.05;;;;;;;8.91;82.16;99404.97;347704;28;1081;-68
2022/12/30 00:47:48;;;;;;;5.70;1.42;;;;;;;8.95;82.11;99411.75;345373;28;1261;-69
2022/12/30 00:48:00;;;;;;;4.63;1.60;;;;;;;8.96;82.06;99408.28;344815;28;1272;-68
2022/12/30 00:56:20;;;;;;;4.97;0.95;;;;;;;8.80;82.41;99411.31;344698;28;1161;-69
2022/12/30 00:56:31;;;;;;;4.30;1.00;;;;;;;8.78;82.69;99420.03;345370;28;1193;-68
2022/12/30 00:56:44;;;;;;;3.10;0.98;;;;;;;8.84;82.88;99413.84;345273;28;1026;-69
2022/12/30 00:56:56;;;;;;;1.60;0.80;;;;;;;8.85;82.71;99412.94;345377;28;1062;-69
2022/12/30 00:57:08;;;;;;;2.17;0.80;;;;;;;8.87;82.53;99414.56;345202;28;1062;-69
2022/12/30 00:57:20;;;;;;;2.67;0.85;;;;;;;8.87;82.53;99405.94;345345;28;1199;-69
2022/12/30 00:57:32;;;;;;;2.42;1.00;;;;;;;8.83;82.39;99412.13;345240;28;1306;-68
2022/12/30 00:57:44;;;;;;;3.80;1.10;;;;;;;8.80;82.77;99411.31;344964;28;1051;-69
2022/12/30 00:57:56;;;;;;;5.65;1.10;;;;;;;8.82;82.50;99415.63;344671;28;1191;-68
2022/12/30 00:58:11;;;;;;;7.00;1.20;;;;;;;8.79;82.62;99409.63;344904;28;1099;-69
2022/12/30 00:58:23;;;;;;;4.88;0.90;;;;;;;8.78;82.74;99405.34;344938;28;1193;-69
2022/12/30 00:58:35;;;;;;;4.50;1.00;;;;;;;8.79;82.61;99412.22;345268;28;1286;-68
2022/12/30 00:58:47;;;;;;;3.80;1.10;;;;;;;8.82;82.68;99407.84;344970;28;1078;-68
2022/12/30 00:58:59;;;;;;;4.30;1.20;;;;;;;8.83;82.89;99412.13;344616;28;1625;-69
2022/12/30 00:59:12;;;;;;;3.90;1.08;;;;;;;8.86;82.64;99404.28;344482;28;1290;-69
2022/12/30 00:59:24;;;;;;;3.47;1.02;;;;;;;8.89;82.66;99402.41;344865;28;1309;-68
2022/12/30 00:59:36;;;;;;;4.05;1.00;;;;;;;8.89;82.37;99406.75;344847;28;1051;-69
2022/12/30 00:59:48;;;;;;;4.22;1.08;;;;;;;8.88;82.49;99405.06;343442;28;1009;-69
2022/12/30 01:00:00;;;;;;;3.17;0.80;;;;;;;8.85;82.55;99410.34;343375;28;966;-68
2022/12/30 01:00:13;;;;;;;1.77;0.90;;;;;;;8.84;82.56;99414.69;343894;28;1322;-69
2022/12/30 01:00:25;;;;;;;2.92;1.00;;;;;;;8.82;82.51;99405.25;346129;28;1156;-68
2022/12/30 01:00:39;;;;;;;3.95;1.20;;;;;;;8.85;82.66;99415.50;346139;28;1233;-69
2022/12/30 01:00:51;;;;;;;3.70;1.20;;;;;;;8.79;82.56;99412.22;346235;28;1046;-68
2022/12/30 01:01:03;;;;;;;5.63;1.10;;;;;;;8.79;82.55;99406.16;345830;28;2543;-69
2022/12/30 01:01:16;;;;;;;7.65;1.20;;;;;;;8.87;82.64;99408.53;345723;28;1075;-69
2022/12/30 01:01:28;;;;;;;9.60;1.45;;;;;;;8.85;82.26;99416.34;344701;28;1048;-69
2022/12/30 01:01:40;;;;;;;7.15;1.40;;;;;;;8.88;82.07;99410.25;344956;28;1077;-69
2022/12/30 01:01:52;;;;;;;4.90;1.17;;;;;;;8.82;82.28;99415.63;344840;28;1106;-69
2022/12/30 01:02:05;;;;;;;3.90;1.15;;;;;;;8.82;82.38;99415.63;344192;28;1816;-69
2022/12/30 01:02:17;;;;;;;5.53;1.20;;;;;;;8.82;82.41;99415.63;343601;28;1332;-68
2022/12/30 01:02:29;;;;;;;6.03;1.20;;;;;;;8.78;82.59;99420.88;344964;28;1083;-69
2022/12/30 01:02:41;;;;;;;5.05;1.17;;;;;;;8.82;82.72;99415.63;344986;28;1022;-69
2022/12/30 01:02:54;;;;;;;2.78;1.20;;;;;;;8.84;82.59;99419.03;345189;28;728;-69
2022/12/30 01:03:06;;;;;;;2.95;1.20;;;;;;;8.85;82.70;99415.50;344955;28;1263;-69
2022/12/30 01:03:18;;;;;;;4.00;1.15;;;;;;;8.84;82.62;99419.03;344777;28;1280;-69
2022/12/30 01:03:32;;;;;;;3.80;1.10;;;;;;;8.83;82.57;99414.72;345445;28;1251;-68
2022/12/30 01:03:46;;;;;;;2.50;1.10;;;;;;;8.80;82.46;99420.84;344066;28;1095;-68
2022/12/30 01:03:58;;;;;;;3.45;1.30;;;;;;;8.77;82.71;99418.31;343458;28;1391;-69
2022/12/30 01:04:09;;;;;;;3.42;1.52;;;;;;;8.75;82.76;99415.81;343323;28;1018;-69
2022/12/30 01:04:22;;;;;;;4.22;1.20;;;;;;;8.80;82.66;99419.09;343450;28;1577;-69
2022/12/30 01:04:37;;;;;;;4.25;1.00;;;;;;;8.82;82.85;99423.41;343416;28;1033;-69
2022/12/30 01:04:49;;;;;;;3.13;1.02;;;;;;;8.77;83.07;99416.59;343477;28;1258;-69
2022/12/30 01:05:01;;;;;;;1.98;0.95;;;;;;;8.74;82.76;99418.44;344935;28;1080;-69
2022/12/30 01:05:13;;;;;;;2.83;0.95;;;;;;;8.69;82.72;99421.16;344962;28;1031;-69
2022/12/30 01:05:25;;;;;;;3.63;1.20;;;;;;;8.71;83.09;99419.38;344931;28;1394;-69
2022/12/30 01:05:38;;;;;;;4.55;1.23;;;;;;;8.72;83.04;99410.69;344848;28;1191;-69
2022/12/30 01:05:50;;;;;;;3.65;1.05;;;;;;;8.76;82.90;99416.66;345516;28;1337;-69
2022/12/30 01:06:07;;;;;;;3.72;1.00;;;;;;;8.74;82.75;99414.09;344798;28;1064;-69
2022/12/30 01:06:22;;;;;;;5.07;1.10;;;;;;;8.77;82.82;99419.19;344974;28;1156;-68
2022/12/30 01:06:36;;;;;;;6.07;1.30;;;;;;;8.70;82.81;99412.47;344870;28;1065;-68
2022/12/30 01:06:48;;;;;;;5.57;1.40;;;;;;;8.72;82.86;99415.88;344851;28;1033;-68
2022/12/30 01:07:00;;;;;;;3.92;1.10;;;;;;;8.71;82.97;99416.78;344939;28;1222;-69
2022/12/30 01:07:13;;;;;;;3.03;1.05;;;;;;;8.71;82.99;99408.13;344734;28;1273;-70
2022/12/30 01:07:27;;;;;;;2.50;1.00;;;;;;;8.68;82.89;99414.28;344917;28;1412;-69
2022/12/30 01:07:39;;;;;;;2.47;0.90;;;;;;;8.72;83.10;99410.69;344694;28;2226;-68
2022/12/30 01:07:51;;;;;;;3.80;1.10;;;;;;;8.69;83.02;99415.97;344129;28;1529;-68
2022/12/30 01:08:03;;;;;;;4.57;1.27;;;;;;;8.69;83.23;99410.78;343698;28;1055;-69
2022/12/30 01:08:15;;;;;;;3.92;1.05;;;;;;;8.74;82.96;99414.09;344716;28;1103;-69
2022/12/30 01:08:27;;;;;;;5.18;1.10;;;;;;;8.80;82.67;99416.50;345990;28;1863;-69
2022/12/30 01:08:39;;;;;;;6.10;1.13;;;;;;;8.74;82.71;99414.09;346224;28;1065;-68
2022/12/30 01:08:51;;;;;;;6.28;1.30;;;;;;;8.74;82.77;99415.84;344768;28;1289;-69
2022/12/30 01:09:04;;;;;;;4.78;1.05;;;;;;;8.69;82.94;99415.97;344962;28;1047;-69
2022/12/30 01:09:16;;;;;;;2.83;1.00;;;;;;;8.63;83.14;99415.28;344860;28;1321;-69
2022/12/30 01:09:28;;;;;;;3.10;0.98;;;;;;;8.62;83.05;99418.78;344680;28;1241;-69
2022/12/30 01:09:40;;;;;;;3.10;1.02;;;;;;;8.64;82.99;99410.06;343909;28;1022;-69
2022/12/30 01:09:52;;;;;;;4.45;1.13;;;;;;;8.64;83.13;99406.63;342128;28;1651;-69
2022/12/30 01:10:04;;;;;;;4.50;1.17;;;;;;;8.61;83.20;99412.72;344288;28;1258;-69
2022/12/30 01:10:16;;;;;;;3.45;1.15;;;;;;;8.64;83.40;99412.66;345038;28;1235;-69
2022/12/30 01:10:28;;;;;;;2.47;1.10;;;;;;;8.66;83.15;99416.06;345383;28;1178;-69
2022/12/30 01:10:40;;;;;;;2.97;1.00;;;;;;;8.66;83.20;99416.06;344342;28;2025;-69
2022/12/30 01:10:52;;;;;;;3.13;1.00;;;;;;;8.66;83.41;99410.88;345154;28;1488;-69
2022/12/30 01:11:09;;;;;;;4.05;1.23;;;;;;;8.69;82.96;99415.97;346052;28;1324;-69
2022/12/30 01:11:21;;;;;;;4.57;1.30;;;;;;;8.72;83.01;99413.28;346897;28;1303;-69
2022/12/30 01:11:33;;;;;;;5.05;1.27;;;;;;;8.68;82.89;99411.69;347702;28;1105;-69
2022/12/30 01:12:07;;;;;;;4.07;1.20;;;;;;;8.69;83.15;99413.38;346332;28;1066;-69
2022/12/30 01:12:19;;;;;;;3.90;1.10;;;;;;;8.68;83.32;99419.44;344550;28;1347;-69
2022/12/30 01:12:31;;;;;;;4.15;1.10;;;;;;;8.68;83.00;99416.84;346137;28;1075;-70
2022/12/30 01:12:43;;;;;;;4.72;1.27;;;;;;;8.67;83.06;99407.41;345871;28;2382;-70
2022/12/30 01:12:55;;;;;;;4.95;1.25;;;;;;;8.65;83.22;99414.34;343131;28;2139;-69
2022/12/30 01:13:08;;;;;;;5.97;1.20;;;;;;;8.69;83.22;99410.78;342424;28;1685;-70
2022/12/30 01:13:20;;;;;;;5.47;1.10;;;;;;;8.64;83.02;99417.84;343540;28;1152;-70
2022/12/30 01:13:32;;;;;;;4.45;1.13;;;;;;;8.57;83.28;99417.19;343470;28;1233;-70
2022/12/30 01:13:44;;;;;;;4.05;1.20;;;;;;;8.54;83.12;99416.41;343682;28;1038;-69
2022/12/30 01:13:56;;;;;;;4.05;1.20;;;;;;;8.52;83.67;99413.00;345249;28;1030;-69
2022/12/30 01:14:08;;;;;;;4.93;1.10;;;;;;;8.48;83.48;99406.22;345054;28;1171;-69
2022/12/30 01:14:20;;;;;;;3.90;1.10;;;;;;;8.50;83.87;99414.78;345741;28;1254;-69
2022/12/30 01:14:32;;;;;;;2.22;1.00;;;;;;;8.52;83.73;99407.81;345006;28;2272;-68
2022/12/30 01:14:47;;;;;;;2.15;1.00;;;;;;;8.48;84.13;99412.25;345137;28;1217;-69
2022/12/30 01:14:59;;;;;;;3.63;1.00;;;;;;;8.49;84.00;99413.94;344292;28;2238;-69
2022/12/30 01:15:11;;;;;;;4.18;1.05;;;;;;;8.48;83.98;99404.47;344426;28;1989;-69
2022/12/30 01:15:23;;;;;;;3.55;1.00;;;;;;;8.45;84.14;99411.47;344666;28;1998;-68
2022/12/30 01:15:35;;;;;;;3.10;0.88;;;;;;;8.43;84.13;99408.06;344734;28;1162;-69
2022/12/30 01:15:47;;;;;;;3.13;0.90;;;;;;;8.42;84.29;99414.16;345140;28;1023;-69
2022/12/30 01:16:06;;;;;;;2.28;0.90;;;;;;;8.40;84.14;99409.81;345035;28;1226;-69
2022/12/30 01:16:18;;;;;;;3.60;0.90;;;;;;;8.49;84.01;99411.38;344081;28;1223;-69
2022/12/30 01:16:30;;;;;;;4.90;1.00;;;;;;;8.51;84.04;99411.28;345275;28;1574;-69
2022/12/30 01:16:42;;;;;;;5.18;1.10;;;;;;;8.46;84.08;99408.00;343854;28;1647;-69
2022/12/30 01:16:54;;;;;;;4.63;1.10;;;;;;;8.42;84.04;99408.97;344624;28;1716;-68
2022/12/30 01:17:09;;;;;;;5.00;1.10;;;;;;;8.42;84.06;99407.22;344858;28;1051;-69
2022/12/30 01:17:26;;;;;;;5.40;1.00;;;;;;;8.52;83.77;99413.00;344533;28;1251;-69
2022/12/30 01:17:38;;;;;;;2.97;1.08;;;;;;;8.51;83.70;99417.34;344872;28;1705;-69
2022/12/30 01:17:50;;;;;;;3.00;1.10;;;;;;;8.51;83.70;99411.28;344007;28;1668;-69
2022/12/30 01:18:02;;;;;;;5.72;1.17;;;;;;;8.51;83.80;99416.47;344472;28;1308;-69
2022/12/30 01:18:14;;;;;;;6.45;1.20;;;;;;;8.47;83.85;99412.28;344953;28;1492;-69
2022/12/30 01:18:25;;;;;;;5.80;1.23;;;;;;;8.48;83.76;99419.16;345180;28;1368;-68
2022/12/30 01:18:38;;;;;;;4.68;1.20;;;;;;;8.40;83.73;99420.19;345759;28;1383;-69
2022/12/30 01:18:50;;;;;;;4.50;1.38;;;;;;;8.39;83.86;99417.63;345557;28;1671;-69
2022/12/30 01:19:02;;;;;;;3.87;1.30;;;;;;;8.41;83.98;99410.72;345631;28;1765;-69
2022/12/30 01:19:14;;;;;;;4.18;1.20;;;;;;;8.43;83.95;99418.44;346108;28;1349;-69
2022/12/30 01:19:26;;;;;;;4.15;1.15;;;;;;;8.45;83.85;99414.94;346573;28;1259;-69
2022/12/30 01:19:39;;;;;;;3.83;1.13;;;;;;;8.41;83.85;99421.09;346504;28;1023;-69
2022/12/30 01:19:51;;;;;;;3.38;1.15;;;;;;;8.47;83.86;99420.03;346397;28;1046;-69
2022/12/30 01:20:04;;;;;;;3.72;1.13;;;;;;;8.47;83.78;99420.03;344575;28;1602;-69
2022/12/30 01:20:16;;;;;;;5.13;1.20;;;;;;;8.43;84.09;99413.25;344429;28;2008;-69
2022/12/30 01:20:28;;;;;;;5.72;1.40;;;;;;;8.49;83.77;99419.13;346379;28;1081;-69
2022/12/30 01:20:40;;;;;;;4.22;1.20;;;;;;;8.49;83.83;99418.25;346332;28;1292;-69
2022/12/30 01:20:52;;;;;;;3.42;1.10;;;;;;;8.52;83.66;99423.38;344637;28;1906;-69
2022/12/30 01:21:05;;;;;;;2.83;1.13;;;;;;;8.52;83.84;99418.19;344802;28;1899;-69
2022/12/30 01:21:17;;;;;;;4.30;1.25;;;;;;;8.53;83.46;99420.75;345226;28;1219;-69
2022/12/30 01:21:29;;;;;;;4.75;1.30;;;;;;;8.50;83.66;99420.81;345233;28;1188;-69
2022/12/30 01:21:44;;;;;;;3.42;1.50;;;;;;;8.51;83.73;99416.47;345173;28;1014;-68
2022/12/30 01:21:56;;;;;;;3.50;1.48;;;;;;;8.52;83.64;99413.84;344500;28;2143;-69
2022/12/30 01:22:09;;;;;;;3.92;1.30;;;;;;;8.53;83.47;99420.75;344464;28;1588;-69
2022/12/30 01:22:21;;;;;;;4.93;1.38;;;;;;;8.53;83.47;99422.47;345218;28;1891;-68
2022/12/30 01:22:33;;;;;;;5.60;1.38;;;;;;;8.45;83.50;99416.66;346342;28;1206;-69
2022/12/30 01:22:45;;;;;;;5.30;1.33;;;;;;;8.48;83.59;99420.00;345850;28;1815;-69
2022/12/30 01:22:57;;;;;;;5.72;1.38;;;;;;;8.47;83.72;99425.22;345168;28;1038;-68
2022/12/30 01:23:09;;;;;;;5.03;1.40;;;;;;;8.44;83.73;99417.56;344880;28;1774;-68
2022/12/30 01:23:21;;;;;;;3.83;1.40;;;;;;;8.43;83.90;99413.25;344669;28;1118;-69
2022/12/30 01:23:34;;;;;;;2.70;1.20;;;;;;;8.42;83.80;99419.34;345155;28;1086;-69
2022/12/30 01:23:46;;;;;;;2.20;1.20;;;;;;;8.38;83.78;99411.59;344881;28;1019;-69
2022/12/30 01:23:58;;;;;;;2.97;1.20;;;;;;;8.41;83.85;99415.91;344574;28;2280;-69
2022/12/30 01:24:10;;;;;;;4.60;1.27;;;;;;;8.48;83.96;99421.75;343801;28;1820;-68
2022/12/30 01:24:23;;;;;;;5.38;1.30;;;;;;;8.44;83.76;99414.97;344315;28;1558;-68
2022/12/30 01:24:35;;;;;;;5.35;1.42;;;;;;;8.43;83.67;99413.25;346034;28;1054;-69
2022/12/30 01:24:47;;;;;;;5.68;1.52;;;;;;;8.48;83.73;99412.25;346474;28;742;-69
2022/12/30 01:24:59;;;;;;;5.57;1.50;;;;;;;8.50;83.66;99417.38;346068;28;1182;-69
2022/12/30 01:25:11;;;;;;;7.13;1.38;;;;;;;8.51;83.68;99411.28;346310;28;1127;-69
2022/12/30 01:25:23;;;;;;;7.82;1.48;;;;;;;8.44;83.87;99412.38;345644;28;2591;-69
2022/12/30 01:25:38;;;;;;;6.18;1.52;;;;;;;8.46;83.68;99418.38;345187;28;1596;-69
2022/12/30 01:25:50;;;;;;;5.13;1.55;;;;;;;8.33;83.72;99418.66;346248;28;1054;-69
2022/12/30 01:26:04;;;;;;;4.65;1.48;;;;;;;8.39;84.05;99415.91;346289;28;1153;-69
2022/12/30 01:26:16;;;;;;;3.92;1.38;;;;;;;8.38;83.94;99415.94;345985;28;1394;-68
2022/12/30 01:26:28;;;;;;;4.53;1.38;;;;;;;8.43;83.83;99413.25;345050;28;1950;-68
2022/12/30 01:26:40;;;;;;;7.68;1.73;;;;;;;8.38;83.81;99411.59;344530;28;1209;-69
2022/12/30 01:26:52;;;;;;;7.15;1.90;;;;;;;8.37;84.17;99420.28;344126;28;1955;-68
2022/12/30 01:27:05;;;;;;;4.57;1.73;;;;;;;8.34;84.07;99415.16;344748;28;1729;-69
2022/12/30 01:27:17;;;;;;;4.22;1.27;;;;;;;8.29;84.21;99419.66;345055;28;1532;-69
2022/12/30 01:27:32;;;;;;;5.40;1.40;;;;;;;8.33;84.31;99417.78;345065;28;1612;-69
2022/12/30 01:27:48;;;;;;;4.20;1.38;;;;;;;8.29;84.37;99417.06;345125;28;1082;-69
2022/12/30 01:28:00;;;;;;;4.60;1.23;;;;;;;8.33;84.29;99413.50;344715;28;1047;-69
2022/12/30 01:28:14;;;;;;;4.78;1.20;;;;;;;8.36;84.36;99423.75;345097;28;1011;-69
2022/12/30 01:28:31;;;;;;;2.97;1.10;;;;;;;8.34;84.29;99415.16;343714;28;1042;-69
2022/12/30 01:28:43;;;;;;;4.05;1.20;;;;;;;8.36;84.31;99423.75;343749;28;2133;-69
2022/12/30 01:28:55;;;;;;;4.40;1.20;;;;;;;8.35;84.32;99422.06;344899;28;1035;-69
2022/12/30 01:29:07;;;;;;;5.90;1.27;;;;;;;8.39;84.24;99422.81;343737;28;1773;-69
2022/12/30 01:29:30;;;;;;;5.57;1.38;;;;;;;8.41;84.10;99423.69;345403;28;1116;-68
2022/12/30 01:29:44;;;;;;;3.55;1.30;;;;;;;8.39;84.07;99427.97;345782;28;1754;-69
2022/12/30 01:29:56;;;;;;;4.28;1.20;;;;;;;8.40;84.22;99430.53;344617;28;1765;-69
2022/12/30 01:30:09;;;;;;;4.43;1.20;;;;;;;8.46;84.17;99423.53;344930;28;1102;-69
2022/12/30 01:30:21;;;;;;;2.75;1.20;;;;;;;8.44;84.02;99425.31;344876;28;1326;-69
2022/12/30 01:30:33;;;;;;;3.70;1.30;;;;;;;8.44;83.85;99417.56;344707;28;1272;-69
2022/12/30 01:30:45;;;;;;;4.13;1.30;;;;;;;8.47;84.08;99430.41;344280;28;1689;-69
2022/12/30 01:30:59;;;;;;;3.33;1.13;;;;;;;8.44;83.98;99426.16;344947;28;1826;-69
2022/12/30 01:31:11;;;;;;;3.50;1.13;;;;;;;8.43;83.98;99427.06;345083;28;1052;-68
2022/12/30 01:31:23;;;;;;;5.53;1.27;;;;;;;8.36;84.10;99434.09;346280;28;1307;-69
2022/12/30 01:31:35;;;;;;;5.72;1.40;;;;;;;8.40;84.05;99434.88;344866;28;2023;-69
2022/12/30 01:31:47;;;;;;;4.50;1.30;;;;;;;8.34;84.15;99435.88;344643;28;1759;-68
2022/12/30 01:32:00;;;;;;;3.13;1.20;;;;;;;8.34;84.05;99435.88;344301;28;1590;-68
2022/12/30 01:32:15;;;;;;;3.20;1.30;;;;;;;8.36;83.87;99439.28;344622;28;1311;-69
2022/12/30 01:32:29;;;;;;;4.30;1.27;;;;;;;8.40;84.52;99427.09;343945;28;926;-69
2022/12/30 01:32:41;;;;;;;4.72;1.10;;;;;;;8.44;84.01;99426.16;343624;28;1059;-69
2022/12/30 01:32:53;;;;;;;4.82;1.30;;;;;;;8.40;84.28;99438.31;343514;28;1044;-68
2022/12/30 01:33:05;;;;;;;5.60;1.23;;;;;;;8.42;84.13;99442.66;344473;28;1882;-69
2022/12/30 01:33:17;;;;;;;5.25;1.25;;;;;;;8.32;84.44;99431.66;345065;28;1415;-69
2022/12/30 01:33:29;;;;;;;4.65;1.98;;;;;;;8.32;84.53;99437.66;345334;28;1055;-69
2022/12/30 01:33:41;;;;;;;5.18;2.60;;;;;;;8.30;84.53;99433.44;343708;28;1055;-69
2022/12/30 01:33:53;;;;;;;4.75;2.42;;;;;;;8.33;84.54;99439.38;343554;28;1119;-69
2022/12/30 01:34:05;;;;;;;4.40;1.42;;;;;;;8.29;84.35;99437.78;343767;28;1645;-68
2022/12/30 01:34:17;;;;;;;4.53;1.35;;;;;;;8.29;84.69;99435.19;345183;28;1235;-69
2022/12/30 01:34:29;;;;;;;4.45;1.60;;;;;;;8.31;84.77;99430.81;345157;28;1013;-69
2022/12/30 01:34:41;;;;;;;4.55;1.70;;;;;;;8.30;84.79;99436.88;345137;28;1064;-69